Aviation Digital Data Service (ADDS)

Output produced by METARs form (2311 UTC 20 January 2019)
found at http://www.aviationweather.gov/metar/data/
 
Forecast for: HTKJ (KILIMANJARO AIRP, TZ)
Text: TAF HTKJ 201700Z 2018/2118 09010KT 9999 SCT028
Forecast period: 1800 to 2100 UTC 20 January 2019
Forecast type: FROM: standard forecast or significant change
Winds: from the E (90 degrees) at 12 MPH (10 knots; 5.1 m/s)
Visibility: 6 or more miles 10+ km)
Ceiling: at least 12,000 feet AGL
Clouds: scattered clouds at 2800 feet AGL
Weather: no significant weather forecast for this period
Text: BECMG 2021/2023 SCT024 BKN080
Forecast period: 2100 UTC 20 January 2019 to 1800 UTC 21 January 2019
Forecast type: BECOMING: Conditions expected to become as follows by 2300 UTC 20 January 2019
Winds: from the E (90 degrees) at 12 MPH (10 knots; 5.1 m/s)
Visibility: 6 or more miles 10+ km)
Ceiling: 8000 feet AGL
Clouds: scattered clouds at 2400 feet AGL
broken clouds at 8000 feet AGL
Weather: no significant weather forecast for this period